sensor_id;sensor_type;location;lat;lon;timestamp;P1;durP1;ratioP1;P2;durP2;ratioP2
2211;SDS011;48849;48.758;9.158;2023-09-18T00:00:15;4.20;;;3.80;;
2211;SDS011;48849;48.758;9.158;2023-09-18T00:02:42;4.10;;;3.70;;
2211;SDS011;48849;48.758;9.158;2023-09-18T00:05:09;4.80;;;3.60;;
2211;SDS011;48849;48.758;9.158;2023-09-18T00:07:36;5.23;;;3.90;;
2211;SDS011;48849;48.758;9.158;2023-09-18T00:10:03;6.73;;;3.77;;
2211;SDS011;48849;48.758;9.158;2023-09-18T00:12:31;5.40;;;4.10;;
2211;SDS011;48849;48.758;9.158;2023-09-18T00:14:58;6.43;;;3.93;;
2211;SDS011;48849;48.758;9.158;2023-09-18T00:17:25;4.20;;;3.90;;
2211;SDS011;48849;48.758;9.158;2023-09-18T00:19:51;4.20;;;3.50;;
2211;SDS011;48849;48.758;9.158;2023-09-18T00:22:19;4.20;;;3.70;;
2211;SDS011;48849;48.758;9.158;2023-09-18T00:24:46;3.77;;;3.43;;
2211;SDS011;48849;48.758;9.158;2023-09-18T00:27:12;3.87;;;3.57;;
2211;SDS011;48849;48.758;9.158;2023-09-18T00:29:42;4.30;;;3.40;;
2211;SDS011;48849;48.758;9.158;2023-09-18T00:32:09;4.73;;;3.60;;
2211;SDS011;48849;48.758;9.158;2023-09-18T00:34:35;8.13;;;3.63;;
2211;SDS011;48849;48.758;9.158;2023-09-18T00:37:02;5.67;;;3.80;;
2211;SDS011;48849;48.758;9.158;2023-09-18T00:39:29;5.87;;;4.07;;
2211;SDS011;48849;48.758;9.158;2023-09-18T00:41:56;5.00;;;4.43;;
2211;SDS011;48849;48.758;9.158;2023-09-18T00:44:23;4.87;;;3.80;;
2211;SDS011;48849;48.758;9.158;2023-09-18T00:46:52;4.30;;;3.90;;
2211;SDS011;48849;48.758;9.158;2023-09-18T00:49:20;4.17;;;3.77;;
2211;SDS011;48849;48.758;9.158;2023-09-18T00:51:50;5.23;;;4.07;;
2211;SDS011;48849;48.758;9.158;2023-09-18T00:54:17;6.17;;;4.27;;
2211;SDS011;48849;48.758;9.158;2023-09-18T00:56:45;4.63;;;4.03;;
2211;SDS011;48849;48.758;9.158;2023-09-18T00:59:13;4.40;;;4.00;;
2211;SDS011;48849;48.758;9.158;2023-09-18T01:01:40;4.10;;;3.60;;
2211;SDS011;48849;48.758;9.158;2023-09-18T01:04:10;4.67;;;4.00;;
2211;SDS011;48849;48.758;9.158;2023-09-18T01:06:38;3.97;;;3.47;;
2211;SDS011;48849;48.758;9.158;2023-09-18T01:09:05;4.43;;;3.70;;
2211;SDS011;48849;48.758;9.158;2023-09-18T01:11:40;4.97;;;4.40;;
2211;SDS011;48849;48.758;9.158;2023-09-18T01:14:13;3.90;;;3.60;;
2211;SDS011;48849;48.758;9.158;2023-09-18T01:16:46;4.20;;;3.80;;
2211;SDS011;48849;48.758;9.158;2023-09-18T01:22:11;4.10;;;3.43;;
2211;SDS011;48849;48.758;9.158;2023-09-18T01:24:41;4.23;;;3.80;;
2211;SDS011;48849;48.758;9.158;2023-09-18T01:27:10;7.30;;;4.00;;
2211;SDS011;48849;48.758;9.158;2023-09-18T01:29:39;4.40;;;3.83;;
2211;SDS011;48849;48.758;9.158;2023-09-18T01:32:06;4.00;;;3.60;;
2211;SDS011;48849;48.758;9.158;2023-09-18T01:34:33;3.93;;;3.63;;
2211;SDS011;48849;48.758;9.158;2023-09-18T01:37:02;4.57;;;4.10;;
2211;SDS011;48849;48.758;9.158;2023-09-18T01:39:32;4.80;;;3.87;;
2211;SDS011;48849;48.758;9.158;2023-09-18T01:42:02;4.00;;;3.60;;
2211;SDS011;48849;48.758;9.158;2023-09-18T01:44:31;5.00;;;3.60;;
2211;SDS011;48849;48.758;9.158;2023-09-18T01:46:58;3.93;;;3.60;;
2211;SDS011;48849;48.758;9.158;2023-09-18T01:49:28;4.10;;;3.70;;
2211;SDS011;48849;48.758;9.158;2023-09-18T01:51:55;5.00;;;3.27;;
2211;SDS011;48849;48.758;9.158;2023-09-18T01:54:22;4.23;;;3.60;;
2211;SDS011;48849;48.758;9.158;2023-09-18T01:56:49;4.97;;;3.90;;
2211;SDS011;48849;48.758;9.158;2023-09-18T01:59:18;5.40;;;3.90;;
2211;SDS011;48849;48.758;9.158;2023-09-18T02:01:45;4.07;;;3.67;;
2211;SDS011;48849;48.758;9.158;2023-09-18T02:04:12;7.80;;;4.30;;
2211;SDS011;48849;48.758;9.158;2023-09-18T02:06:39;12.20;;;3.97;;
2211;SDS011;48849;48.758;9.158;2023-09-18T02:09:06;8.23;;;3.90;;
2211;SDS011;48849;48.758;9.158;2023-09-18T02:11:35;9.73;;;4.10;;
2211;SDS011;48849;48.758;9.158;2023-09-18T02:14:03;9.30;;;3.97;;
2211;SDS011;48849;48.758;9.158;2023-09-18T02:16:32;9.03;;;3.97;;
2211;SDS011;48849;48.758;9.158;2023-09-18T02:19:00;8.07;;;3.90;;
2211;SDS011;48849;48.758;9.158;2023-09-18T02:21:28;9.20;;;3.80;;
2211;SDS011;48849;48.758;9.158;2023-09-18T02:23:55;5.37;;;3.40;;
2211;SDS011;48849;48.758;9.158;2023-09-18T02:26:23;8.50;;;3.60;;
2211;SDS011;48849;48.758;9.158;2023-09-18T02:28:51;6.37;;;3.10;;
2211;SDS011;48849;48.758;9.158;2023-09-18T02:31:19;7.70;;;3.40;;
2211;SDS011;48849;48.758;9.158;2023-09-18T02:33:47;13.83;;;4.40;;
2211;SDS011;48849;48.758;9.158;2023-09-18T02:36:14;10.43;;;3.40;;
2211;SDS011;48849;48.758;9.158;2023-09-18T02:38:41;8.37;;;3.53;;
2211;SDS011;48849;48.758;9.158;2023-09-18T02:41:09;10.27;;;3.03;;
2211;SDS011;48849;48.758;9.158;2023-09-18T02:43:35;10.37;;;2.67;;
2211;SDS011;48849;48.758;9.158;2023-09-18T02:46:03;10.63;;;3.10;;
2211;SDS011;48849;48.758;9.158;2023-09-18T02:48:30;11.87;;;2.93;;
2211;SDS011;48849;48.758;9.158;2023-09-18T02:50:59;9.60;;;3.20;;
2211;SDS011;48849;48.758;9.158;2023-09-18T02:53:27;7.80;;;2.80;;
2211;SDS011;48849;48.758;9.158;2023-09-18T02:55:54;6.73;;;2.43;;
2211;SDS011;48849;48.758;9.158;2023-09-18T02:58:22;6.80;;;2.50;;
2211;SDS011;48849;48.758;9.158;2023-09-18T03:00:51;11.03;;;3.10;;
2211;SDS011;48849;48.758;9.158;2023-09-18T03:03:19;11.83;;;3.27;;
2211;SDS011;48849;48.758;9.158;2023-09-18T03:05:46;8.80;;;3.03;;
2211;SDS011;48849;48.758;9.158;2023-09-18T03:08:14;9.03;;;3.27;;
2211;SDS011;48849;48.758;9.158;2023-09-18T03:10:42;10.87;;;3.23;;
2211;SDS011;48849;48.758;9.158;2023-09-18T03:13:10;12.33;;;3.63;;
2211;SDS011;48849;48.758;9.158;2023-09-18T03:15:37;13.40;;;3.50;;
2211;SDS011;48849;48.758;9.158;2023-09-18T03:18:05;8.07;;;2.40;;
2211;SDS011;48849;48.758;9.158;2023-09-18T03:20:33;9.10;;;3.57;;
2211;SDS011;48849;48.758;9.158;2023-09-18T03:23:00;8.33;;;3.07;;
2211;SDS011;48849;48.758;9.158;2023-09-18T03:25:29;9.07;;;3.70;;
2211;SDS011;48849;48.758;9.158;2023-09-18T03:27:56;8.13;;;3.23;;
2211;SDS011;48849;48.758;9.158;2023-09-18T03:30:24;10.37;;;2.93;;
2211;SDS011;48849;48.758;9.158;2023-09-18T03:32:51;7.90;;;3.10;;
2211;SDS011;48849;48.758;9.158;2023-09-18T03:35:19;14.20;;;3.30;;
2211;SDS011;48849;48.758;9.158;2023-09-18T03:37:46;7.00;;;3.20;;
2211;SDS011;48849;48.758;9.158;2023-09-18T03:40:15;6.70;;;3.00;;
2211;SDS011;48849;48.758;9.158;2023-09-18T03:42:45;8.40;;;3.13;;
2211;SDS011;48849;48.758;9.158;2023-09-18T03:45:12;7.30;;;2.93;;
2211;SDS011;48849;48.758;9.158;2023-09-18T03:47:40;11.50;;;3.40;;
2211;SDS011;48849;48.758;9.158;2023-09-18T03:50:08;10.63;;;4.00;;
2211;SDS011;48849;48.758;9.158;2023-09-18T03:52:35;8.30;;;3.23;;
2211;SDS011;48849;48.758;9.158;2023-09-18T03:55:04;8.00;;;3.00;;
2211;SDS011;48849;48.758;9.158;2023-09-18T03:57:31;8.50;;;3.03;;
2211;SDS011;48849;48.758;9.158;2023-09-18T03:59:59;7.33;;;3.00;;
2211;SDS011;48849;48.758;9.158;2023-09-18T04:02:26;14.70;;;3.73;;
2211;SDS011;48849;48.758;9.158;2023-09-18T04:04:55;9.60;;;3.30;;
2211;SDS011;48849;48.758;9.158;2023-09-18T04:07:22;11.77;;;3.27;;
2211;SDS011;48849;48.758;9.158;2023-09-18T04:09:48;8.43;;;2.90;;
2211;SDS011;48849;48.758;9.158;2023-09-18T04:12:15;8.67;;;2.67;;
2211;SDS011;48849;48.758;9.158;2023-09-18T04:14:42;12.10;;;3.40;;
2211;SDS011;48849;48.758;9.158;2023-09-18T04:17:11;8.13;;;3.07;;
2211;SDS011;48849;48.758;9.158;2023-09-18T04:19:38;8.47;;;3.57;;
2211;SDS011;48849;48.758;9.158;2023-09-18T04:22:04;9.57;;;3.17;;
2211;SDS011;48849;48.758;9.158;2023-09-18T04:24:31;7.50;;;2.93;;
2211;SDS011;48849;48.758;9.158;2023-09-18T04:26:59;5.03;;;3.17;;
2211;SDS011;48849;48.758;9.158;2023-09-18T04:29:26;8.10;;;3.03;;
2211;SDS011;48849;48.758;9.158;2023-09-18T04:31:52;7.43;;;2.80;;
2211;SDS011;48849;48.758;9.158;2023-09-18T04:34:21;11.83;;;3.10;;
2211;SDS011;48849;48.758;9.158;2023-09-18T04:36:48;7.43;;;3.40;;
2211;SDS011;48849;48.758;9.158;2023-09-18T04:39:15;4.30;;;2.70;;
2211;SDS011;48849;48.758;9.158;2023-09-18T04:41:42;10.53;;;4.00;;
2211;SDS011;48849;48.758;9.158;2023-09-18T04:44:09;6.93;;;3.07;;
2211;SDS011;48849;48.758;9.158;2023-09-18T04:46:37;12.47;;;3.53;;
2211;SDS011;48849;48.758;9.158;2023-09-18T04:49:07;8.30;;;3.50;;
2211;SDS011;48849;48.758;9.158;2023-09-18T04:51:37;7.23;;;3.03;;
2211;SDS011;48849;48.758;9.158;2023-09-18T04:54:05;7.23;;;3.50;;
2211;SDS011;48849;48.758;9.158;2023-09-18T04:56:32;6.97;;;3.47;;
2211;SDS011;48849;48.758;9.158;2023-09-18T04:58:59;7.13;;;3.40;;
2211;SDS011;48849;48.758;9.158;2023-09-18T05:01:26;13.37;;;4.17;;
2211;SDS011;48849;48.758;9.158;2023-09-18T05:03:54;5.87;;;3.20;;
2211;SDS011;48849;48.758;9.158;2023-09-18T05:06:21;7.33;;;3.40;;
2211;SDS011;48849;48.758;9.158;2023-09-18T05:08:50;7.13;;;3.40;;
2211;SDS011;48849;48.758;9.158;2023-09-18T05:11:18;5.27;;;3.37;;
2211;SDS011;48849;48.758;9.158;2023-09-18T05:13:45;6.73;;;3.97;;
2211;SDS011;48849;48.758;9.158;2023-09-18T05:16:12;10.23;;;3.97;;
2211;SDS011;48849;48.758;9.158;2023-09-18T05:18:39;5.97;;;3.70;;
2211;SDS011;48849;48.758;9.158;2023-09-18T05:21:06;9.27;;;4.10;;
2211;SDS011;48849;48.758;9.158;2023-09-18T05:23:34;9.00;;;3.80;;
2211;SDS011;48849;48.758;9.158;2023-09-18T05:26:02;8.27;;;3.50;;
2211;SDS011;48849;48.758;9.158;2023-09-18T05:28:29;7.53;;;3.10;;
2211;SDS011;48849;48.758;9.158;2023-09-18T05:30:56;6.90;;;2.87;;
2211;SDS011;48849;48.758;9.158;2023-09-18T05:33:23;7.70;;;3.20;;
2211;SDS011;48849;48.758;9.158;2023-09-18T05:35:50;8.10;;;3.63;;
2211;SDS011;48849;48.758;9.158;2023-09-18T05:38:17;5.70;;;2.90;;
2211;SDS011;48849;48.758;9.158;2023-09-18T05:40:44;9.30;;;2.87;;
2211;SDS011;48849;48.758;9.158;2023-09-18T05:43:13;4.50;;;3.30;;
2211;SDS011;48849;48.758;9.158;2023-09-18T05:45:40;9.00;;;3.30;;
2211;SDS011;48849;48.758;9.158;2023-09-18T05:48:07;6.23;;;2.80;;
2211;SDS011;48849;48.758;9.158;2023-09-18T05:50:34;9.33;;;4.10;;
2211;SDS011;48849;48.758;9.158;2023-09-18T05:53:02;8.87;;;2.90;;
2211;SDS011;48849;48.758;9.158;2023-09-18T05:55:29;8.33;;;3.20;;
2211;SDS011;48849;48.758;9.158;2023-09-18T05:57:57;6.13;;;3.27;;
2211;SDS011;48849;48.758;9.158;2023-09-18T06:00:25;7.00;;;3.47;;
2211;SDS011;48849;48.758;9.158;2023-09-18T06:02:52;11.13;;;3.50;;
2211;SDS011;48849;48.758;9.158;2023-09-18T06:05:19;11.40;;;3.00;;
2211;SDS011;48849;48.758;9.158;2023-09-18T06:07:47;5.60;;;3.60;;
2211;SDS011;48849;48.758;9.158;2023-09-18T06:10:17;7.00;;;3.00;;
2211;SDS011;48849;48.758;9.158;2023-09-18T06:12:46;7.07;;;3.87;;
2211;SDS011;48849;48.758;9.158;2023-09-18T06:15:13;9.33;;;4.03;;
2211;SDS011;48849;48.758;9.158;2023-09-18T06:17:42;9.40;;;3.80;;
2211;SDS011;48849;48.758;9.158;2023-09-18T06:20:10;7.50;;;3.67;;
2211;SDS011;48849;48.758;9.158;2023-09-18T06:22:38;7.77;;;3.73;;
2211;SDS011;48849;48.758;9.158;2023-09-18T06:25:06;9.27;;;4.10;;
2211;SDS011;48849;48.758;9.158;2023-09-18T06:27:35;9.67;;;3.30;;
2211;SDS011;48849;48.758;9.158;2023-09-18T06:30:02;8.50;;;4.00;;
2211;SDS011;48849;48.758;9.158;2023-09-18T06:32:29;12.60;;;4.20;;
2211;SDS011;48849;48.758;9.158;2023-09-18T06:34:57;10.97;;;4.60;;
2211;SDS011;48849;48.758;9.158;2023-09-18T06:37:25;8.33;;;3.97;;
2211;SDS011;48849;48.758;9.158;2023-09-18T06:39:51;5.07;;;3.63;;
2211;SDS011;48849;48.758;9.158;2023-09-18T06:42:18;7.30;;;4.10;;
2211;SDS011;48849;48.758;9.158;2023-09-18T06:44:45;8.67;;;3.20;;
2211;SDS011;48849;48.758;9.158;2023-09-18T06:47:12;5.67;;;4.33;;
2211;SDS011;48849;48.758;9.158;2023-09-18T06:49:39;10.57;;;4.80;;
2211;SDS011;48849;48.758;9.158;2023-09-18T06:52:08;10.10;;;4.87;;
2211;SDS011;48849;48.758;9.158;2023-09-18T06:54:35;8.27;;;4.03;;
2211;SDS011;48849;48.758;9.158;2023-09-18T06:57:02;8.43;;;4.20;;
2211;SDS011;48849;48.758;9.158;2023-09-18T06:59:30;6.50;;;3.70;;
2211;SDS011;48849;48.758;9.158;2023-09-18T07:02:01;10.87;;;3.80;;
2211;SDS011;48849;48.758;9.158;2023-09-18T07:08:02;12.50;;;5.00;;
2211;SDS011;48849;48.758;9.158;2023-09-18T07:10:41;5.83;;;4.17;;
2211;SDS011;48849;48.758;9.158;2023-09-18T07:13:25;6.13;;;3.87;;
2211;SDS011;48849;48.758;9.158;2023-09-18T07:16:13;9.97;;;4.60;;
2211;SDS011;48849;48.758;9.158;2023-09-18T07:18:43;10.97;;;3.77;;
2211;SDS011;48849;48.758;9.158;2023-09-18T07:21:18;9.77;;;3.80;;
2211;SDS011;48849;48.758;9.158;2023-09-18T07:29:46;5.70;;;3.13;;
2211;SDS011;48849;48.758;9.158;2023-09-18T07:32:20;6.13;;;2.97;;
2211;SDS011;48849;48.758;9.158;2023-09-18T07:34:48;5.27;;;2.00;;
2211;SDS011;48849;48.758;9.158;2023-09-18T07:37:18;3.90;;;1.93;;
2211;SDS011;48849;48.758;9.158;2023-09-18T07:39:51;5.43;;;2.00;;
2211;SDS011;48849;48.758;9.158;2023-09-18T07:42:18;4.73;;;2.20;;
2211;SDS011;48849;48.758;9.158;2023-09-18T07:44:45;4.73;;;1.67;;
2211;SDS011;48849;48.758;9.158;2023-09-18T07:47:12;5.40;;;2.13;;
2211;SDS011;48849;48.758;9.158;2023-09-18T07:49:42;4.50;;;2.00;;
2211;SDS011;48849;48.758;9.158;2023-09-18T07:52:16;4.73;;;2.20;;
2211;SDS011;48849;48.758;9.158;2023-09-18T07:54:44;3.47;;;1.73;;
2211;SDS011;48849;48.758;9.158;2023-09-18T07:57:15;4.43;;;1.70;;
2211;SDS011;48849;48.758;9.158;2023-09-18T07:59:53;2.60;;;1.47;;
2211;SDS011;48849;48.758;9.158;2023-09-18T08:02:34;3.63;;;1.53;;
2211;SDS011;48849;48.758;9.158;2023-09-18T08:07:59;5.97;;;1.67;;
2211;SDS011;48849;48.758;9.158;2023-09-18T08:10:38;5.73;;;1.60;;
2211;SDS011;48849;48.758;9.158;2023-09-18T08:13:14;4.70;;;1.30;;
2211;SDS011;48849;48.758;9.158;2023-09-18T08:15:46;3.03;;;1.80;;
2211;SDS011;48849;48.758;9.158;2023-09-18T08:18:16;4.43;;;1.40;;
2211;SDS011;48849;48.758;9.158;2023-09-18T08:20:52;5.60;;;1.90;;
2211;SDS011;48849;48.758;9.158;2023-09-18T08:23:22;2.83;;;2.10;;
2211;SDS011;48849;48.758;9.158;2023-09-18T08:25:50;2.93;;;1.13;;
2211;SDS011;48849;48.758;9.158;2023-09-18T08:28:29;4.50;;;1.80;;
2211;SDS011;48849;48.758;9.158;2023-09-18T08:31:09;4.37;;;1.90;;
2211;SDS011;48849;48.758;9.158;2023-09-18T08:33:39;3.67;;;1.40;;
2211;SDS011;48849;48.758;9.158;2023-09-18T08:36:06;4.10;;;1.80;;
2211;SDS011;48849;48.758;9.158;2023-09-18T08:38:41;4.03;;;1.53;;
2211;SDS011;48849;48.758;9.158;2023-09-18T08:41:15;5.13;;;1.63;;
2211;SDS011;48849;48.758;9.158;2023-09-18T08:43:49;4.23;;;2.13;;
2211;SDS011;48849;48.758;9.158;2023-09-18T08:46:25;3.30;;;1.70;;
2211;SDS011;48849;48.758;9.158;2023-09-18T08:49:00;2.40;;;1.30;;
2211;SDS011;48849;48.758;9.158;2023-09-18T08:51:28;2.57;;;1.47;;
2211;SDS011;48849;48.758;9.158;2023-09-18T08:53:55;3.23;;;1.83;;
2211;SDS011;48849;48.758;9.158;2023-09-18T08:56:23;3.00;;;1.20;;
2211;SDS011;48849;48.758;9.158;2023-09-18T08:58:54;2.20;;;1.40;;
2211;SDS011;48849;48.758;9.158;2023-09-18T09:01:22;2.57;;;1.50;;
2211;SDS011;48849;48.758;9.158;2023-09-18T09:03:57;3.30;;;1.50;;
2211;SDS011;48849;48.758;9.158;2023-09-18T09:06:36;2.10;;;1.10;;
2211;SDS011;48849;48.758;9.158;2023-09-18T09:09:24;2.07;;;1.20;;
2211;SDS011;48849;48.758;9.158;2023-09-18T09:12:02;2.53;;;1.30;;
2211;SDS011;48849;48.758;9.158;2023-09-18T09:14:34;2.73;;;1.10;;
2211;SDS011;48849;48.758;9.158;2023-09-18T09:17:21;1.63;;;1.17;;
2211;SDS011;48849;48.758;9.158;2023-09-18T09:19:51;3.43;;;1.20;;
2211;SDS011;48849;48.758;9.158;2023-09-18T09:22:44;3.67;;;1.20;;
2211;SDS011;48849;48.758;9.158;2023-09-18T09:25:23;2.63;;;1.40;;
2211;SDS011;48849;48.758;9.158;2023-09-18T09:28:13;2.57;;;1.57;;
2211;SDS011;48849;48.758;9.158;2023-09-18T09:30:49;2.70;;;1.40;;
2211;SDS011;48849;48.758;9.158;2023-09-18T09:33:30;2.00;;;1.20;;
2211;SDS011;48849;48.758;9.158;2023-09-18T09:36:05;2.83;;;1.30;;
2211;SDS011;48849;48.758;9.158;2023-09-18T09:38:40;2.47;;;1.50;;
2211;SDS011;48849;48.758;9.158;2023-09-18T09:41:23;4.30;;;1.80;;
2211;SDS011;48849;48.758;9.158;2023-09-18T09:43:53;4.53;;;2.17;;
2211;SDS011;48849;48.758;9.158;2023-09-18T09:46:22;3.00;;;1.77;;
2211;SDS011;48849;48.758;9.158;2023-09-18T09:49:02;3.40;;;1.93;;
2211;SDS011;48849;48.758;9.158;2023-09-18T09:54:22;6.67;;;2.57;;
2211;SDS011;48849;48.758;9.158;2023-09-18T10:03:25;3.90;;;2.20;;
2211;SDS011;48849;48.758;9.158;2023-09-18T10:06:15;5.10;;;2.00;;
2211;SDS011;48849;48.758;9.158;2023-09-18T10:08:46;5.90;;;2.27;;
2211;SDS011;48849;48.758;9.158;2023-09-18T10:11:13;6.17;;;2.63;;
2211;SDS011;48849;48.758;9.158;2023-09-18T10:13:46;4.07;;;2.70;;
2211;SDS011;48849;48.758;9.158;2023-09-18T10:16:19;4.73;;;1.97;;
2211;SDS011;48849;48.758;9.158;2023-09-18T10:18:55;3.23;;;2.00;;
2211;SDS011;48849;48.758;9.158;2023-09-18T10:21:38;3.90;;;2.33;;
2211;SDS011;48849;48.758;9.158;2023-09-18T10:24:17;5.97;;;2.03;;
2211;SDS011;48849;48.758;9.158;2023-09-18T10:26:55;3.97;;;1.67;;
2211;SDS011;48849;48.758;9.158;2023-09-18T10:29:26;4.47;;;2.00;;
2211;SDS011;48849;48.758;9.158;2023-09-18T10:31:58;2.07;;;1.67;;
2211;SDS011;48849;48.758;9.158;2023-09-18T10:34:31;4.90;;;2.33;;
2211;SDS011;48849;48.758;9.158;2023-09-18T10:37:02;4.00;;;2.50;;
2211;SDS011;48849;48.758;9.158;2023-09-18T10:39:35;4.13;;;2.13;;
2211;SDS011;48849;48.758;9.158;2023-09-18T10:42:04;3.67;;;1.93;;
2211;SDS011;48849;48.758;9.158;2023-09-18T10:44:34;6.53;;;2.33;;
2211;SDS011;48849;48.758;9.158;2023-09-18T10:47:08;3.60;;;2.17;;
2211;SDS011;48849;48.758;9.158;2023-09-18T10:49:41;5.17;;;2.00;;
2211;SDS011;48849;48.758;9.158;2023-09-18T10:52:14;3.07;;;1.70;;
2211;SDS011;48849;48.758;9.158;2023-09-18T10:54:46;3.87;;;1.90;;
2211;SDS011;48849;48.758;9.158;2023-09-18T10:57:15;2.63;;;1.40;;
2211;SDS011;48849;48.758;9.158;2023-09-18T10:59:45;4.00;;;1.57;;
2211;SDS011;48849;48.758;9.158;2023-09-18T11:02:18;3.77;;;2.30;;
2211;SDS011;48849;48.758;9.158;2023-09-18T11:04:48;3.30;;;1.70;;
2211;SDS011;48849;48.758;9.158;2023-09-18T11:07:20;3.27;;;2.03;;
2211;SDS011;48849;48.758;9.158;2023-09-18T11:09:47;4.30;;;1.73;;
2211;SDS011;48849;48.758;9.158;2023-09-18T11:12:18;6.10;;;2.10;;
2211;SDS011;48849;48.758;9.158;2023-09-18T11:15:01;6.57;;;1.90;;
2211;SDS011;48849;48.758;9.158;2023-09-18T11:18:08;3.47;;;1.73;;
2211;SDS011;48849;48.758;9.158;2023-09-18T11:20:42;4.93;;;2.33;;
2211;SDS011;48849;48.758;9.158;2023-09-18T11:23:15;4.53;;;2.07;;
2211;SDS011;48849;48.758;9.158;2023-09-18T11:25:46;4.80;;;2.00;;
2211;SDS011;48849;48.758;9.158;2023-09-18T11:28:22;4.47;;;2.00;;
2211;SDS011;48849;48.758;9.158;2023-09-18T11:30:57;4.47;;;1.67;;
2211;SDS011;48849;48.758;9.158;2023-09-18T11:33:31;6.03;;;5.43;;
2211;SDS011;48849;48.758;9.158;2023-09-18T11:36:04;5.87;;;4.30;;
2211;SDS011;48849;48.758;9.158;2023-09-18T11:38:53;6.30;;;2.80;;
2211;SDS011;48849;48.758;9.158;2023-09-18T11:41:24;3.37;;;2.20;;
2211;SDS011;48849;48.758;9.158;2023-09-18T11:47:06;3.57;;;3.03;;
2211;SDS011;48849;48.758;9.158;2023-09-18T11:49:46;4.50;;;2.70;;
2211;SDS011;48849;48.758;9.158;2023-09-18T11:52:24;4.10;;;2.53;;
2211;SDS011;48849;48.758;9.158;2023-09-18T11:54:52;3.70;;;1.60;;
2211;SDS011;48849;48.758;9.158;2023-09-18T11:57:23;2.30;;;1.60;;
2211;SDS011;48849;48.758;9.158;2023-09-18T11:59:53;2.37;;;1.70;;
2211;SDS011;48849;48.758;9.158;2023-09-18T12:02:36;2.30;;;1.60;;
2211;SDS011;48849;48.758;9.158;2023-09-18T12:05:09;3.40;;;1.90;;
2211;SDS011;48849;48.758;9.158;2023-09-18T12:07:47;1.77;;;1.47;;
2211;SDS011;48849;48.758;9.158;2023-09-18T12:10:24;4.23;;;2.40;;
2211;SDS011;48849;48.758;9.158;2023-09-18T12:12:57;4.73;;;2.80;;
2211;SDS011;48849;48.758;9.158;2023-09-18T12:15:26;3.13;;;2.40;;
2211;SDS011;48849;48.758;9.158;2023-09-18T12:18:04;4.10;;;2.30;;
2211;SDS011;48849;48.758;9.158;2023-09-18T12:20:34;8.00;;;3.17;;
2211;SDS011;48849;48.758;9.158;2023-09-18T12:26:37;6.30;;;5.13;;
2211;SDS011;48849;48.758;9.158;2023-09-18T12:29:09;4.27;;;2.73;;
2211;SDS011;48849;48.758;9.158;2023-09-18T12:31:40;4.20;;;2.90;;
2211;SDS011;48849;48.758;9.158;2023-09-18T12:34:30;5.50;;;2.30;;
2211;SDS011;48849;48.758;9.158;2023-09-18T12:36:57;2.53;;;1.73;;
2211;SDS011;48849;48.758;9.158;2023-09-18T12:39:31;3.50;;;1.63;;
2211;SDS011;48849;48.758;9.158;2023-09-18T12:42:04;3.57;;;1.80;;
2211;SDS011;48849;48.758;9.158;2023-09-18T12:44:37;6.57;;;2.33;;
2211;SDS011;48849;48.758;9.158;2023-09-18T12:47:09;3.73;;;2.30;;
2211;SDS011;48849;48.758;9.158;2023-09-18T12:49:39;2.50;;;1.80;;
2211;SDS011;48849;48.758;9.158;2023-09-18T13:05:12;5.43;;;2.30;;
2211;SDS011;48849;48.758;9.158;2023-09-18T13:07:47;4.67;;;2.23;;
2211;SDS011;48849;48.758;9.158;2023-09-18T13:41:21;4.10;;;3.00;;
2211;SDS011;48849;48.758;9.158;2023-09-18T13:43:52;5.03;;;2.17;;
2211;SDS011;48849;48.758;9.158;2023-09-18T13:46:20;1.70;;;1.47;;
2211;SDS011;48849;48.758;9.158;2023-09-18T13:48:51;3.33;;;1.90;;
2211;SDS011;48849;48.758;9.158;2023-09-18T14:19:05;6.50;;;4.27;;
2211;SDS011;48849;48.758;9.158;2023-09-18T14:25:43;3.00;;;1.70;;
2211;SDS011;48849;48.758;9.158;2023-09-18T14:28:13;2.40;;;1.57;;
2211;SDS011;48849;48.758;9.158;2023-09-18T14:30:41;2.20;;;1.70;;
2211;SDS011;48849;48.758;9.158;2023-09-18T14:36:18;2.40;;;2.07;;
2211;SDS011;48849;48.758;9.158;2023-09-18T14:38:45;2.90;;;1.60;;
2211;SDS011;48849;48.758;9.158;2023-09-18T14:41:12;2.17;;;1.43;;
2211;SDS011;48849;48.758;9.158;2023-09-18T14:47:23;3.03;;;1.30;;
2211;SDS011;48849;48.758;9.158;2023-09-18T14:49:58;4.63;;;1.90;;
2211;SDS011;48849;48.758;9.158;2023-09-18T14:55:47;2.80;;;1.37;;
2211;SDS011;48849;48.758;9.158;2023-09-18T14:58:36;7.47;;;5.30;;
2211;SDS011;48849;48.758;9.158;2023-09-18T15:01:17;5.67;;;3.40;;
2211;SDS011;48849;48.758;9.158;2023-09-18T15:03:53;2.57;;;1.60;;
2211;SDS011;48849;48.758;9.158;2023-09-18T15:13:21;3.27;;;1.63;;
2211;SDS011;48849;48.758;9.158;2023-09-18T15:15:48;1.40;;;1.20;;
2211;SDS011;48849;48.758;9.158;2023-09-18T15:18:15;4.80;;;1.53;;
2211;SDS011;48849;48.758;9.158;2023-09-18T15:20:43;3.00;;;1.20;;
2211;SDS011;48849;48.758;9.158;2023-09-18T16:26:20;6.10;;;4.00;;
2211;SDS011;48849;48.758;9.158;2023-09-18T16:29:12;4.43;;;2.40;;
2211;SDS011;48849;48.758;9.158;2023-09-18T16:38:34;4.40;;;2.90;;
2211;SDS011;48849;48.758;9.158;2023-09-18T16:44:00;5.10;;;2.27;;
2211;SDS011;48849;48.758;9.158;2023-09-18T17:22:28;6.20;;;5.33;;
2211;SDS011;48849;48.758;9.158;2023-09-18T17:25:06;4.60;;;3.83;;
2211;SDS011;48849;48.758;9.158;2023-09-18T17:28:07;3.27;;;2.17;;
2211;SDS011;48849;48.758;9.158;2023-09-18T17:30:57;2.90;;;1.90;;
2211;SDS011;48849;48.758;9.158;2023-09-18T17:34:06;4.00;;;2.17;;
2211;SDS011;48849;48.758;9.158;2023-09-18T18:19:12;6.57;;;2.17;;
2211;SDS011;48849;48.758;9.158;2023-09-18T18:22:15;3.05;;;1.70;;
2211;SDS011;48849;48.758;9.158;2023-09-18T18:48:27;5.93;;;2.07;;
2211;SDS011;48849;48.758;9.158;2023-09-18T19:01:52;5.07;;;3.50;;
2211;SDS011;48849;48.758;9.158;2023-09-18T19:04:20;4.27;;;2.77;;
2211;SDS011;48849;48.758;9.158;2023-09-18T19:06:46;3.80;;;2.10;;
2211;SDS011;48849;48.758;9.158;2023-09-18T19:09:13;3.00;;;1.97;;
2211;SDS011;48849;48.758;9.158;2023-09-18T19:11:42;5.00;;;2.20;;
2211;SDS011;48849;48.758;9.158;2023-09-18T19:14:09;3.07;;;1.80;;
2211;SDS011;48849;48.758;9.158;2023-09-18T19:16:35;2.20;;;1.80;;
2211;SDS011;48849;48.758;9.158;2023-09-18T19:19:03;3.57;;;1.80;;
2211;SDS011;48849;48.758;9.158;2023-09-18T19:21:31;3.67;;;1.80;;
2211;SDS011;48849;48.758;9.158;2023-09-18T19:23:59;2.90;;;1.70;;
2211;SDS011;48849;48.758;9.158;2023-09-18T19:26:25;3.77;;;2.17;;
2211;SDS011;48849;48.758;9.158;2023-09-18T19:28:52;4.33;;;1.80;;
2211;SDS011;48849;48.758;9.158;2023-09-18T19:31:19;2.80;;;1.97;;
2211;SDS011;48849;48.758;9.158;2023-09-18T19:33:46;2.10;;;1.60;;
2211;SDS011;48849;48.758;9.158;2023-09-18T19:36:13;2.47;;;1.60;;
2211;SDS011;48849;48.758;9.158;2023-09-18T19:38:41;2.17;;;1.40;;
2211;SDS011;48849;48.758;9.158;2023-09-18T19:41:08;2.40;;;1.50;;
2211;SDS011;48849;48.758;9.158;2023-09-18T19:43:36;2.90;;;1.77;;
2211;SDS011;48849;48.758;9.158;2023-09-18T19:46:03;3.20;;;1.57;;
2211;SDS011;48849;48.758;9.158;2023-09-18T19:48:30;3.20;;;2.20;;
2211;SDS011;48849;48.758;9.158;2023-09-18T19:50:57;3.03;;;1.47;;
2211;SDS011;48849;48.758;9.158;2023-09-18T19:53:26;4.10;;;1.80;;
2211;SDS011;48849;48.758;9.158;2023-09-18T19:55:54;3.10;;;1.40;;
2211;SDS011;48849;48.758;9.158;2023-09-18T19:58:20;3.70;;;2.40;;
2211;SDS011;48849;48.758;9.158;2023-09-18T20:00:47;4.00;;;2.40;;
2211;SDS011;48849;48.758;9.158;2023-09-18T20:03:14;4.13;;;1.30;;
2211;SDS011;48849;48.758;9.158;2023-09-18T20:05:41;2.30;;;1.58;;
2211;SDS011;48849;48.758;9.158;2023-09-18T20:08:08;3.87;;;1.53;;
2211;SDS011;48849;48.758;9.158;2023-09-18T20:10:35;6.37;;;1.80;;
2211;SDS011;48849;48.758;9.158;2023-09-18T20:13:04;3.20;;;1.70;;
2211;SDS011;48849;48.758;9.158;2023-09-18T20:15:30;2.17;;;1.00;;
2211;SDS011;48849;48.758;9.158;2023-09-18T20:17:57;2.90;;;1.30;;
2211;SDS011;48849;48.758;9.158;2023-09-18T20:20:24;1.30;;;1.07;;
2211;SDS011;48849;48.758;9.158;2023-09-18T20:22:51;2.53;;;1.20;;
2211;SDS011;48849;48.758;9.158;2023-09-18T20:25:18;2.77;;;1.50;;
2211;SDS011;48849;48.758;9.158;2023-09-18T20:27:45;1.90;;;1.10;;
2211;SDS011;48849;48.758;9.158;2023-09-18T20:30:13;1.10;;;1.00;;